Accueil
METAR-TAF:

METAR-TAF

Aéroports :

Aurillac, France

Aéroport d'Aurillac

latitude: 44-53N, longitude: 002-25E, altitude: 639 m

Observation

Le bulletin a été fait il y a 48 minutes, à 20:30 UTC
Vent 4 kt de nord-ouest
Température 2°C
Humidité 87%
Pression 1014 hPa
Visibilité 10 km ou plus
Nuages fragmentés à une hauteur de 1600 ft

METAR: LFLW 262030Z AUTO 31004KT 9999 BKN016 02/00 Q1014

Heure: 23:18 (21:18 UTC)

Prévision

Le bulletin a été fait il y a 7 heures et 18 minutes, à 14:00 UTC
Prévision valable du 26 à 15 UTC au 26 à 24 UTC
Vent 7 kt de ouest
Visibilité 10 km ou plus
Nuages fragmentés à une hauteur de 1000 ft
Ciel couvert à une hauteur de 1500 ft
Probabilité 30% :
Temporairement
du 26 à 15 UTC au 26 à 21 UTC
Nuages fragmentés à une hauteur de 700 ft
Ciel couvert à une hauteur de 1300 ft
averses de pluie

TAF: LFLW 261400Z 2615/2624 28007KT 9999 BKN010 OVC015 PROB30 TEMPO 2615/2621 SHRA BKN007 OVC013

Observations et prévisions météorologiques de plus de 4000 aéroports (messages METAR et TAF).

Les stations disponibles sont représentées par des disques jaunes et rouges sur la carte.

Passer la souris dessus pour voir le nom de la station.

Cliquer dessus pour voir les observations et prévisions météorologiques.

Pour changer de carte: cliquez sur les boutons verts avec une croix noire pour zoomer, sur le bouton vert avec un tiret pour effectuer un zoom arrière, ou sur les flèches vertes pour les cartes adjacentes.


METAR-TAF: